• Join FlightAware (Why Join?)
  • Login
  • US Flag 
06:38AM EDT


 

Airport Tracker/Info


-or-


 

Live Flight TrackerFlight Track Log ✈ LXJ537 ✈ 06-May-2013 ✈ KVRB - KPWK

Flight Track Log - Related Links

Times and Time Zones

All times are in EDT time to prevent confusion due to time zone crossing. See the LXJ537 flight status page for this flight to view local times or setup timezone preferences in your user account.

Time Position Orientation Groundspeed Altitude Reporting Facility
EDT Latitude Longitude Course Direction KTS MPH feet Rate Location/Type
07:54AM 27.6794 -80.4633 319° Northwest 384 442 1,900  Level Miami Center
07:56AM 27.8290 -80.5957 319° Northwest  Level FlightAware Approximate
07:57AM 28.1932 -80.9765 319° Northwest  Level FlightAware Approximate
08:03AM 28.4380 -81.2214 319° Northwest  Level FlightAware Approximate
08:04AM 28.5234 -81.3135 300° West  Level FlightAware Approximate
08:05AM 28.6316 -81.3333 North  Level FlightAware Approximate
08:06AM 28.7495 -81.3433 355° North  Level FlightAware Approximate
08:07AM 28.8674 -81.3546 355° North  Level FlightAware Approximate
08:08AM 28.9854 -81.3653 355° North  Level FlightAware Approximate
08:09AM 29.1033 -81.3761 355° North  Level FlightAware Approximate
08:10AM 29.2212 -81.3875 354° North  Level FlightAware Approximate
08:11AM 29.3390 -81.4006 354° North  Level FlightAware Approximate
08:12AM 29.4568 -81.4137 354° North  Level FlightAware Approximate
08:13AM 29.5745 -81.4274 354° North  Level FlightAware Approximate
08:14AM 29.6922 -81.4412 354° North  Level FlightAware Approximate
08:15AM 29.8100 -81.4536 356° North  Level FlightAware Approximate
08:16AM 29.9280 -81.4634 356° North  Level FlightAware Approximate
08:17AM 30.0460 -81.4739 356° North  Level FlightAware Approximate
08:18AM 30.1640 -81.4846 356° North  Level FlightAware Approximate
08:19AM 30.2819 -81.4953 356° North  Level FlightAware Approximate
08:20AM 30.3993 -81.5122 351° North  Level FlightAware Approximate
08:21AM 30.5161 -81.5338 351° North  Level FlightAware Approximate
08:22AM 30.6330 -81.5554 351° North  Level FlightAware Approximate
08:23AM 30.7498 -81.5771 351° North  Level FlightAware Approximate
08:24AM 30.8666 -81.5989 351° North  Level FlightAware Approximate
08:25AM 30.9834 -81.6208 351° North  Level FlightAware Approximate
08:26AM 31.1003 -81.6428 351° North  Level FlightAware Approximate
08:27AM 31.2171 -81.6648 351° North  Level FlightAware Approximate
08:28AM 31.3339 -81.6868 351° North  Level FlightAware Approximate
08:29AM 31.4507 -81.7090 351° North  Level FlightAware Approximate
08:30AM 31.5675 -81.7311 351° North  Level FlightAware Approximate
08:31AM 31.6843 -81.7533 351° North  Level FlightAware Approximate
08:32AM 31.8012 -81.7748 351° North  Level FlightAware Approximate
08:33AM 31.9181 -81.7965 351° North  Level FlightAware Approximate
08:34AM 32.0350 -81.8182 351° North  Level FlightAware Approximate
08:35AM 32.1516 -81.8414 349° North  Level FlightAware Approximate
08:36AM 32.2678 -81.8681 349° North  Level FlightAware Approximate
08:37AM 32.3839 -81.8949 349° North  Level FlightAware Approximate
08:38AM 32.5001 -81.9218 349° North  Level FlightAware Approximate
08:39AM 32.6166 -81.9457 351° North  Level FlightAware Approximate
08:40AM 32.7335 -81.9675 351° North  Level FlightAware Approximate
08:41AM 32.8504 -81.9894 351° North  Level FlightAware Approximate
08:42AM 32.9673 -82.0113 351° North  Level FlightAware Approximate
08:43AM 33.0842 -82.0333 351° North  Level FlightAware Approximate
08:44AM 33.2010 -82.0553 351° North  Level FlightAware Approximate
08:45AM 33.3179 -82.0774 351° North  Level FlightAware Approximate
08:46AM 33.4348 -82.0995 351° North  Level FlightAware Approximate
08:47AM 33.5517 -82.1217 351° North  Level FlightAware Approximate
08:48AM 33.6685 -82.1440 351° North  Level FlightAware Approximate
08:49AM 33.7715 -82.2084 326° Northwest  Level FlightAware Approximate
08:50AM 33.8693 -82.2885 326° Northwest  Level FlightAware Approximate
08:51AM 33.9702 -82.3631 329° Northwest  Level FlightAware Approximate
08:52AM 34.0714 -82.4370 327° Northwest  Level FlightAware Approximate
08:53AM 34.1707 -82.5148 327° Northwest  Level FlightAware Approximate
08:54AM 34.2699 -82.5927 327° Northwest  Level FlightAware Approximate
08:55AM 34.3691 -82.6708 327° Northwest  Level FlightAware Approximate
08:56AM 34.4683 -82.7491 327° Northwest  Level FlightAware Approximate
08:57AM 34.5674 -82.8275 327° Northwest  Level FlightAware Approximate
08:58AM 34.6667 -82.9056 327° Northwest  Level FlightAware Approximate
08:59AM 34.7663 -82.9833 327° Northwest  Level FlightAware Approximate
09:00AM 34.8659 -83.0611 327° Northwest  Level FlightAware Approximate
09:01AM 34.9655 -83.1392 327° Northwest  Level FlightAware Approximate
09:02AM 35.0649 -83.2174 327° Northwest  Level FlightAware Approximate
09:03AM 35.1644 -83.2958 327° Northwest  Level FlightAware Approximate
09:04AM 35.2637 -83.3744 327° Northwest  Level FlightAware Approximate
09:05AM 35.3631 -83.4532 327° Northwest  Level FlightAware Approximate
09:06AM 35.4623 -83.5322 327° Northwest  Level FlightAware Approximate
09:07AM 35.5616 -83.6114 327° Northwest  Level FlightAware Approximate
09:08AM 35.6607 -83.6908 327° Northwest  Level FlightAware Approximate
09:09AM 35.7598 -83.7704 327° Northwest  Level FlightAware Approximate
09:10AM 35.8589 -83.8502 327° Northwest  Level FlightAware Approximate
09:11AM 35.9591 -83.9278 329° Northwest  Level FlightAware Approximate
09:12AM 36.0601 -84.0039 329° Northwest  Level FlightAware Approximate
09:13AM 36.1611 -84.0803 329° Northwest  Level FlightAware Approximate
09:14AM 36.2621 -84.1568 329° Northwest  Level FlightAware Approximate
09:15AM 36.3629 -84.2336 329° Northwest  Level FlightAware Approximate
09:16AM 36.4638 -84.3104 329° Northwest  Level FlightAware Approximate
09:17AM 36.5648 -84.3871 329° Northwest  Level FlightAware Approximate
09:18AM 36.6657 -84.4640 329° Northwest  Level FlightAware Approximate
09:19AM 36.7666 -84.5411 329° Northwest  Level FlightAware Approximate
09:20AM 36.8675 -84.6183 329° Northwest  Level FlightAware Approximate
09:21AM 36.9684 -84.6957 328° Northwest  Level FlightAware Approximate
09:22AM 37.0692 -84.7733 328° Northwest  Level FlightAware Approximate
09:23AM 37.1700 -84.8511 328° Northwest  Level FlightAware Approximate
09:24AM 37.2707 -84.9291 328° Northwest  Level FlightAware Approximate
09:25AM 37.3713 -85.0073 328° Northwest  Level FlightAware Approximate
09:26AM 37.4740 -85.0813 331° Northwest  Level FlightAware Approximate
09:27AM 37.5770 -85.1549 330° Northwest  Level FlightAware Approximate
09:28AM 37.6783 -85.2319 328° Northwest  Level FlightAware Approximate
09:29AM 37.7787 -85.3112 328° Northwest  Level FlightAware Approximate
09:30AM 37.8790 -85.3906 328° Northwest  Level FlightAware Approximate
09:31AM 37.9792 -85.4703 328° Northwest  Level FlightAware Approximate
09:32AM 38.0794 -85.5502 328° Northwest  Level FlightAware Approximate
09:33AM 38.1849 -85.6179 335° Northwest  Level FlightAware Approximate
09:34AM 38.2918 -85.6826 335° Northwest  Level FlightAware Approximate
09:35AM 38.3986 -85.7475 335° Northwest  Level FlightAware Approximate
09:36AM 38.5054 -85.8126 335° Northwest  Level FlightAware Approximate
09:37AM 38.6126 -85.8766 336° Northwest  Level FlightAware Approximate
09:38AM 38.7203 -85.9393 336° Northwest  Level FlightAware Approximate
09:39AM 38.8280 -86.0021 336° Northwest  Level FlightAware Approximate
09:40AM 38.9357 -86.0652 336° Northwest  Level FlightAware Approximate
09:41AM 39.0425 -86.1307 334° Northwest  Level FlightAware Approximate
09:42AM 39.1494 -86.1960 335° Northwest  Level FlightAware Approximate
09:43AM 39.2569 -86.2599 335° Northwest  Level FlightAware Approximate
09:44AM 39.3643 -86.3240 335° Northwest  Level FlightAware Approximate
09:45AM 39.4717 -86.3883 335° Northwest  Level FlightAware Approximate
09:46AM 39.5790 -86.4528 335° Northwest  Level FlightAware Approximate
09:47AM 39.6864 -86.5175 335° Northwest  Level FlightAware Approximate
09:48AM 39.7936 -86.5825 335° Northwest  Level FlightAware Approximate
09:49AM 39.8992 -86.6518 331° Northwest  Level FlightAware Approximate
09:50AM 40.0051 -86.7201 333° Northwest  Level FlightAware Approximate
09:51AM 40.1105 -86.7903 333° Northwest  Level FlightAware Approximate
09:52AM 40.2166 -86.8589 334° Northwest  Level FlightAware Approximate
09:53AM 40.3230 -86.9267 334° Northwest  Level FlightAware Approximate
09:54AM 40.4301 -86.9928 335° Northwest  Level FlightAware Approximate
09:55AM 40.5372 -87.0588 335° Northwest  Level FlightAware Approximate
09:56AM 40.6474 -87.1154 339° North  Level FlightAware Approximate
09:57AM 40.7577 -87.1692 346° North  Level FlightAware Approximate
09:58AM 40.8589 -87.2261 341° North  Level FlightAware Approximate
09:59AM 40.9708 -87.2770 339° North  Level FlightAware Approximate
10:00AM 41.0806 -87.3354 337° Northwest  Level FlightAware Approximate
10:01AM 41.1900 -87.3950 339° North  Level FlightAware Approximate
10:02AM 41.2996 -87.4543 338° Northwest  Level FlightAware Approximate
10:03AM 41.4094 -87.5130 339° North  Level FlightAware Approximate
10:04AM 41.5187 -87.5723 342° North  Level FlightAware Approximate
10:05AM 41.6274 -87.6319 337° Northwest  Level FlightAware Approximate
10:06AM 41.7367 -87.6926 337° Northwest  Level FlightAware Approximate
10:07AM 41.8487 -87.7438 342° North  Level FlightAware Approximate
10:08AM 41.9602 -87.7968 340° North  Level FlightAware Approximate
10:09AM 42.0607 -87.8584 342° North  Level FlightAware Approximate
10:10AM 42.1143 -87.9015 323° Northwest  Level Estimated
10:11AM 42.1143 -87.9015 160° South  Level Estimated
10:12AM 42.1143 -87.9015 166° South  Level Estimated
10:13AM 42.1143 -87.9015 166° South  Level Estimated
10:14AM 42.1143 -87.9015 166° South  Level Estimated
10:15AM 42.1143 -87.9015 166° South  Level Estimated
10:16AM 42.1143 -87.9015 166° South  Level Estimated
10:17AM 42.1143 -87.9015 166° South  Level Estimated
10:18AM 42.1143 -87.9015 166° South  Level Estimated
10:19AM 42.1143 -87.9015 166° South  Level Estimated
10:20AM 42.1143 -87.9015 166° South  Level Estimated
10:21AM 42.1143 -87.9015 166° South  Level Estimated
10:22AM 42.1143 -87.9015 166° South  Level Estimated
10:23AM 42.1143 -87.9015 166° South  Level Estimated
10:24AM 42.1143 -87.9015 166° South  Level Estimated